createdAt,value
2019-04-29T00:02:25.503Z,97445.02
2019-04-29T00:04:54.888Z,97441.97
2019-04-29T00:07:24.274Z,97444.00
2019-04-29T00:09:53.795Z,97440.06
2019-04-29T00:12:23.272Z,97437.53
2019-04-29T00:14:54.454Z,97440.12
2019-04-29T00:17:34.291Z,97439.72
2019-04-29T00:20:07.070Z,97436.93
2019-04-29T00:22:36.443Z,97435.09
2019-04-29T00:25:06.264Z,97432.51
2019-04-29T00:27:35.648Z,97432.36
2019-04-29T00:30:08.652Z,97435.19
2019-04-29T00:32:38.166Z,97433.88
2019-04-29T00:35:08.088Z,97430.46
2019-04-29T00:37:55.793Z,97431.55
2019-04-29T00:40:42.874Z,97430.77
2019-04-29T00:43:26.001Z,97431.66
2019-04-29T00:45:55.523Z,97430.55
2019-04-29T00:48:24.889Z,97429.73
2019-04-29T00:50:54.266Z,97420.94
2019-04-29T00:53:23.728Z,97426.03
2019-04-29T00:55:53.569Z,97420.06
2019-04-29T00:58:22.951Z,97418.05
2019-04-29T01:00:52.769Z,97413.41
2019-04-29T01:03:22.153Z,97426.63
2019-04-29T01:05:51.633Z,97422.52
2019-04-29T01:08:21.176Z,97422.06
2019-04-29T01:10:50.556Z,97424.16
2019-04-29T01:13:20.003Z,97426.70
2019-04-29T01:15:49.383Z,97435.54
2019-04-29T01:18:18.765Z,97430.58
2019-04-29T01:20:53.867Z,97431.16
2019-04-29T01:23:23.243Z,97426.57
2019-04-29T01:25:54.271Z,97433.64
2019-04-29T01:28:27.960Z,97433.64
2019-04-29T01:31:03.476Z,97443.34
2019-04-29T01:33:32.919Z,97444.98
2019-04-29T01:36:10.481Z,97435.95
2019-04-29T01:38:39.891Z,97433.45
2019-04-29T01:41:10.902Z,97436.03
2019-04-29T01:43:59.015Z,97432.73
2019-04-29T01:46:29.302Z,97431.55
2019-04-29T01:48:58.755Z,97437.88
2019-04-29T01:51:29.197Z,97435.50
2019-04-29T01:53:58.658Z,97436.71
2019-04-29T01:56:28.033Z,97431.92
2019-04-29T01:58:57.413Z,97441.00
2019-04-29T02:01:26.865Z,97428.61
2019-04-29T02:03:57.381Z,97420.47
2019-04-29T02:06:27.106Z,97418.70
2019-04-29T02:08:57.097Z,97415.36
2019-04-29T02:11:26.535Z,97408.33
2019-04-29T02:13:55.916Z,97419.98
2019-04-29T02:16:25.306Z,97419.98
2019-04-29T02:18:54.693Z,97419.85
2019-04-29T02:21:24.155Z,97413.86
2019-04-29T02:23:55.172Z,97406.08
2019-04-29T02:26:24.542Z,97403.80
2019-04-29T02:28:53.930Z,97406.62
2019-04-29T02:31:38.421Z,97409.14
2019-04-29T02:34:08.589Z,97414.61
2019-04-29T02:36:38.557Z,97413.86
2019-04-29T02:39:29.093Z,97415.73
2019-04-29T02:42:16.615Z,97406.38
2019-04-29T02:44:46.229Z,97405.94
2019-04-29T02:47:15.688Z,97414.44
2019-04-29T02:49:45.062Z,97406.98
2019-04-29T02:52:14.449Z,97402.59
2019-04-29T02:54:44.475Z,97408.22
2019-04-29T02:57:15.576Z,97421.23
2019-04-29T02:59:46.586Z,97417.28
2019-04-29T03:02:20.372Z,97416.57
2019-04-29T03:04:51.391Z,97416.83
2019-04-29T03:07:21.622Z,97426.88
2019-04-29T03:09:51.275Z,97416.55
2019-04-29T03:12:20.699Z,97416.80
2019-04-29T03:14:50.091Z,97411.34
2019-04-29T03:17:19.535Z,97408.86
2019-04-29T03:20:08.790Z,97407.24
2019-04-29T03:22:42.802Z,97403.18
2019-04-29T03:25:13.496Z,97414.80
2019-04-29T03:27:42.871Z,97406.36
2019-04-29T03:30:12.702Z,97403.14
2019-04-29T03:32:42.162Z,97399.33
2019-04-29T03:35:11.672Z,97398.86
2019-04-29T03:37:41.060Z,97393.37
2019-04-29T03:40:10.582Z,97390.88
2019-04-29T03:42:39.972Z,97392.34
2019-04-29T03:45:09.590Z,97394.55
2019-04-29T03:47:38.973Z,97394.34
2019-04-29T03:50:09.457Z,97391.10
2019-04-29T03:52:38.855Z,97395.16
2019-04-29T03:55:08.464Z,97391.61
2019-04-29T03:57:38.314Z,97391.81
2019-04-29T04:00:11.214Z,97389.17
2019-04-29T04:02:48.204Z,97392.78
2019-04-29T04:05:32.222Z,97387.61
2019-04-29T04:08:03.232Z,97385.23
2019-04-29T04:10:32.632Z,97383.55
2019-04-29T04:13:02.039Z,97381.80
2019-04-29T04:15:32.426Z,97378.48
2019-04-29T04:18:21.549Z,97375.38
2019-04-29T04:20:51.664Z,97374.80
2019-04-29T04:23:21.882Z,97371.20
2019-04-29T04:25:52.146Z,97376.92
2019-04-29T04:28:22.319Z,97374.06
2019-04-29T04:30:52.524Z,97369.93
2019-04-29T04:33:22.853Z,97367.88
2019-04-29T04:35:53.113Z,97370.45
2019-04-29T04:38:23.372Z,97370.55
2019-04-29T04:40:58.392Z,97368.88
2019-04-29T04:43:27.772Z,97371.42
2019-04-29T04:45:57.311Z,97372.12
2019-04-29T04:48:26.728Z,97378.36
2019-04-29T04:50:56.091Z,97364.54
2019-04-29T04:53:25.467Z,97363.19
2019-04-29T04:55:56.736Z,97360.64
2019-04-29T04:58:27.185Z,97362.06
2019-04-29T05:00:57.709Z,97364.92
2019-04-29T05:03:27.086Z,97362.10
2019-04-29T05:05:56.550Z,97360.68
2019-04-29T05:08:26.892Z,97360.11
2019-04-29T05:10:56.721Z,97360.84
2019-04-29T05:13:28.598Z,97365.34
2019-04-29T05:15:58.150Z,97359.44
2019-04-29T05:18:27.532Z,97360.05
2019-04-29T05:20:57.683Z,97361.94
2019-04-29T05:23:27.956Z,97366.69
2019-04-29T05:25:58.136Z,97363.87
2019-04-29T05:28:28.555Z,97362.63
2019-04-29T05:30:58.849Z,97357.33
2019-04-29T05:33:29.054Z,97356.86
2019-04-29T05:36:03.945Z,97357.56
2019-04-29T05:38:40.969Z,97360.20
2019-04-29T05:41:10.352Z,97358.94
2019-04-29T05:43:57.299Z,97358.14
2019-04-29T05:46:28.303Z,97354.13
2019-04-29T05:48:57.696Z,97356.36
2019-04-29T05:51:31.368Z,97351.86
2019-04-29T05:54:02.807Z,97345.20
2019-04-29T05:56:32.268Z,97350.44
2019-04-29T05:59:01.665Z,97342.52
2019-04-29T06:01:31.915Z,97342.56
2019-04-29T06:04:02.132Z,97336.95
2019-04-29T06:06:32.412Z,97336.72
2019-04-29T06:09:02.671Z,97338.14
2019-04-29T06:11:33.071Z,97334.06
2019-04-29T06:14:04.372Z,97329.91
2019-04-29T06:16:33.961Z,97333.71
2019-04-29T06:19:05.920Z,97329.45
2019-04-29T06:21:34.813Z,97338.23
2019-04-29T06:24:06.243Z,97329.95
2019-04-29T06:26:35.451Z,97333.52
2019-04-29T06:29:06.034Z,97330.25
2019-04-29T06:31:35.578Z,97332.47
2019-04-29T06:34:06.525Z,97326.92
2019-04-29T06:36:36.989Z,97325.51
2019-04-29T06:39:07.680Z,97333.19
2019-04-29T06:41:40.650Z,97316.44
2019-04-29T06:44:15.767Z,97317.58
2019-04-29T06:46:39.262Z,97315.06
2019-04-29T06:49:10.472Z,97312.84
2019-04-29T06:51:39.717Z,97307.84
2019-04-29T06:54:09.102Z,97313.52
2019-04-29T06:56:38.480Z,97313.52
2019-04-29T06:59:11.989Z,97308.91
2019-04-29T07:01:38.944Z,97314.84
2019-04-29T07:04:08.468Z,97308.98
2019-04-29T07:06:38.863Z,97310.05
2019-04-29T07:09:08.836Z,97310.11
2019-04-29T07:11:39.174Z,97303.73
2019-04-29T07:14:09.292Z,97295.78
2019-04-29T07:16:39.622Z,97296.57
2019-04-29T07:19:09.819Z,97299.73
2019-04-29T07:21:41.926Z,97300.96
2019-04-29T07:24:11.230Z,97293.86
2019-04-29T07:26:40.618Z,97297.51
2019-04-29T07:29:10.802Z,97294.52
2019-04-29T07:31:41.130Z,97292.27
2019-04-29T07:34:11.437Z,97293.93
2019-04-29T07:36:41.665Z,97290.78
2019-04-29T07:39:11.723Z,97281.60
2019-04-29T07:41:42.128Z,97285.10
2019-04-29T07:44:13.756Z,97285.94
2019-04-29T07:46:56.347Z,97283.52
2019-04-29T07:49:17.256Z,97283.16
2019-04-29T07:51:47.233Z,97276.12
2019-04-29T07:54:17.725Z,97275.67
2019-04-29T07:56:47.176Z,97283.66
2019-04-29T07:59:16.547Z,97283.91
2019-04-29T08:01:45.935Z,97279.75
2019-04-29T08:04:15.384Z,97278.88
2019-04-29T08:06:45.615Z,97287.39
2019-04-29T08:09:15.003Z,97280.03
2019-04-29T08:11:45.768Z,97279.42
2019-04-29T08:14:15.485Z,97290.88
2019-04-29T08:16:45.751Z,97287.54
2019-04-29T08:19:15.863Z,97280.94
2019-04-29T08:21:49.725Z,97291.23
2019-04-29T08:24:17.371Z,97291.31
2019-04-29T08:26:47.619Z,97289.97
2019-04-29T08:29:17.279Z,97292.35
2019-04-29T08:31:47.236Z,97297.66
2019-04-29T08:34:18.695Z,97293.98
2019-04-29T08:36:48.543Z,97300.98
2019-04-29T08:39:17.984Z,97292.06
2019-04-29T08:41:48.495Z,97293.31
2019-04-29T08:44:22.782Z,97293.70
2019-04-29T08:46:54.003Z,97289.82
2019-04-29T08:49:23.378Z,97292.06
2019-04-29T08:51:52.766Z,97292.59
2019-04-29T08:54:22.460Z,97283.22
2019-04-29T08:57:02.741Z,97286.27
2019-04-29T08:59:24.600Z,97286.28
2019-04-29T09:01:54.568Z,97287.59
2019-04-29T09:04:23.959Z,97288.14
2019-04-29T09:06:53.416Z,97288.52
2019-04-29T09:09:29.137Z,97296.37
2019-04-29T09:11:53.903Z,97291.28
2019-04-29T09:14:23.282Z,97300.86
2019-04-29T09:16:53.808Z,97302.58
2019-04-29T09:19:23.763Z,97299.30
2019-04-29T09:21:58.309Z,97292.47
2019-04-29T09:24:27.686Z,97290.58
2019-04-29T09:26:58.801Z,97294.77
2019-04-29T09:29:32.640Z,97298.08
2019-04-29T09:32:03.242Z,97290.10
2019-04-29T09:34:32.614Z,97283.12
2019-04-29T09:37:02.163Z,97281.72
2019-04-29T09:39:43.140Z,97277.39
2019-04-29T09:42:22.054Z,97287.23
2019-04-29T09:44:58.483Z,97281.45
2019-04-29T09:47:28.155Z,97289.17
2019-04-29T09:49:57.608Z,97277.22
2019-04-29T09:52:27.069Z,97285.17
2019-04-29T09:54:59.540Z,97282.81
2019-04-29T09:57:27.195Z,97282.17
2019-04-29T10:00:05.461Z,97278.48
2019-04-29T10:02:35.495Z,97274.89
2019-04-29T10:05:11.439Z,97278.06
2019-04-29T10:07:41.893Z,97276.70
2019-04-29T10:10:11.689Z,97275.28
2019-04-29T10:12:41.075Z,97263.83
2019-04-29T10:15:12.380Z,97279.75
2019-04-29T10:17:50.070Z,97273.09
2019-04-29T10:20:18.584Z,97269.98
2019-04-29T10:22:50.217Z,97271.97
2019-04-29T10:25:19.306Z,97266.42
2019-04-29T10:27:48.688Z,97262.69
2019-04-29T10:30:19.851Z,97268.92
2019-04-29T10:32:49.248Z,97270.06
2019-04-29T10:35:18.627Z,97263.17
2019-04-29T10:37:48.189Z,97260.02
2019-04-29T10:40:24.807Z,97270.82
2019-04-29T10:43:02.445Z,97270.99
2019-04-29T10:45:36.547Z,97261.23
2019-04-29T10:48:23.968Z,97267.53
2019-04-29T10:50:55.714Z,97266.17
2019-04-29T10:53:25.272Z,97275.03
2019-04-29T10:55:55.647Z,97270.33
2019-04-29T10:58:30.286Z,97269.39
2019-04-29T11:01:16.054Z,97263.27
2019-04-29T11:03:45.507Z,97263.27
2019-04-29T11:06:16.273Z,97276.81
2019-04-29T11:08:50.162Z,97275.14
2019-04-29T11:11:23.410Z,97273.23
2019-04-29T11:13:51.059Z,97272.49
2019-04-29T11:16:22.995Z,97273.09
2019-04-29T11:18:55.058Z,97274.33
2019-04-29T11:21:25.076Z,97272.59
2019-04-29T11:23:56.563Z,97272.09
2019-04-29T11:26:45.385Z,97272.41
2019-04-29T11:29:14.819Z,97272.47
2019-04-29T11:31:44.369Z,97275.19
2019-04-29T11:34:17.789Z,97272.38
2019-04-29T11:36:46.553Z,97265.50
2019-04-29T11:39:16.225Z,97263.43
2019-04-29T11:41:49.937Z,97255.05
2019-04-29T11:44:21.984Z,97263.25
2019-04-29T11:46:50.652Z,97262.11
2019-04-29T11:49:21.763Z,97257.87
2019-04-29T11:52:08.591Z,97259.28
2019-04-29T11:54:22.409Z,97254.08
2019-04-29T11:56:51.815Z,97253.53
2019-04-29T11:59:40.366Z,97252.14
2019-04-29T12:02:44.619Z,97244.20
2019-04-29T12:05:08.663Z,97248.64
2019-04-29T12:07:36.309Z,97248.00
2019-04-29T12:10:07.938Z,97247.95
2019-04-29T12:12:37.471Z,97243.98
2019-04-29T12:15:21.837Z,97239.13
2019-04-29T12:18:08.840Z,97239.13
2019-04-29T12:20:39.860Z,97250.20
2019-04-29T12:23:11.068Z,97247.96
2019-04-29T12:25:40.911Z,97242.34
2019-04-29T12:28:18.864Z,97238.73
2019-04-29T12:30:44.214Z,97248.09
2019-04-29T12:33:32.417Z,97243.27
2019-04-29T12:36:06.514Z,97236.80
2019-04-29T12:38:48.768Z,97240.45
2019-04-29T12:41:21.153Z,97237.27
2019-04-29T12:43:59.508Z,97228.45
2019-04-29T12:46:48.542Z,97232.94
2019-04-29T12:49:17.995Z,97232.17
2019-04-29T12:51:47.463Z,97232.48
2019-04-29T12:54:16.867Z,97226.86
2019-04-29T12:56:47.708Z,97234.58
2019-04-29T12:59:17.338Z,97225.02
2019-04-29T13:01:57.719Z,97227.98
2019-04-29T13:04:38.684Z,97218.84
2019-04-29T13:07:13.375Z,97218.84
2019-04-29T13:09:45.348Z,97218.20
2019-04-29T13:12:19.425Z,97218.56
2019-04-29T13:15:07.859Z,97210.69
2019-04-29T13:17:42.221Z,97214.09
2019-04-29T13:20:13.128Z,97208.95
2019-04-29T13:22:43.615Z,97206.63
2019-04-29T13:25:15.625Z,97208.58
2019-04-29T13:27:44.519Z,97203.23
2019-04-29T13:30:16.189Z,97201.53
2019-04-29T13:32:45.428Z,97198.46
2019-04-29T13:35:14.951Z,97203.00
2019-04-29T13:37:44.330Z,97191.18
2019-04-29T13:40:14.446Z,97194.19
2019-04-29T13:42:48.592Z,97189.91
2019-04-29T13:45:24.373Z,97189.04
2019-04-29T13:47:56.806Z,97192.09
2019-04-29T13:50:39.458Z,97188.87
2019-04-29T13:53:02.068Z,97181.42
2019-04-29T13:55:47.692Z,97183.10
2019-04-29T13:58:02.511Z,97185.31
2019-04-29T14:00:42.479Z,97175.49
2019-04-29T14:03:13.516Z,97173.38
2019-04-29T14:05:42.963Z,97174.05
2019-04-29T14:08:12.364Z,97173.29
2019-04-29T14:10:41.762Z,97170.28
2019-04-29T14:13:16.321Z,97174.20
2019-04-29T14:15:42.361Z,97165.41
2019-04-29T14:18:12.131Z,97167.27
2019-04-29T14:20:47.229Z,97163.27
2019-04-29T14:23:14.228Z,97165.66
2019-04-29T14:25:43.635Z,97156.09
2019-04-29T14:28:13.069Z,97156.31
2019-04-29T14:30:43.684Z,97165.81
2019-04-29T14:33:13.601Z,97158.52
2019-04-29T14:35:59.450Z,97161.48
2019-04-29T14:38:27.769Z,97159.56
2019-04-29T14:40:57.149Z,97156.27
2019-04-29T14:43:43.559Z,97151.11
2019-04-29T14:46:17.548Z,97151.44
2019-04-29T14:48:51.544Z,97156.92
2019-04-29T14:51:20.899Z,97152.78
2019-04-29T14:53:56.768Z,97153.56
2019-04-29T14:56:21.366Z,97154.45
2019-04-29T14:58:50.798Z,97152.73
2019-04-29T15:01:27.906Z,97154.56
2019-04-29T15:03:58.934Z,97157.75
2019-04-29T15:06:29.081Z,97157.85
2019-04-29T15:08:58.835Z,97161.34
2019-04-29T15:11:32.077Z,97160.77
2019-04-29T15:14:23.741Z,97162.62
2019-04-29T15:17:03.799Z,97168.42
2019-04-29T15:19:48.705Z,97164.72
2019-04-29T15:22:15.803Z,97170.14
2019-04-29T15:24:45.103Z,97169.53
2019-04-29T15:27:14.494Z,97160.50
2019-04-29T15:29:43.880Z,97158.13
2019-04-29T15:32:13.261Z,97167.48
2019-04-29T15:34:44.019Z,97171.67
2019-04-29T15:37:13.730Z,97172.02
2019-04-29T15:39:46.073Z,97170.41
2019-04-29T15:42:14.234Z,97170.42
2019-04-29T15:44:43.607Z,97177.13
2019-04-29T15:47:13.009Z,97168.85
2019-04-29T15:49:42.383Z,97168.45
2019-04-29T15:52:11.834Z,97172.53
2019-04-29T15:54:41.292Z,97171.16
2019-04-29T15:57:15.258Z,97171.22
2019-04-29T15:59:49.063Z,97128.11
2019-04-29T16:02:12.996Z,97169.52
2019-04-29T16:05:04.488Z,97166.48
2019-04-29T16:07:46.610Z,97168.78
2019-04-29T16:10:21.888Z,97173.41
2019-04-29T16:12:52.919Z,97167.73
2019-04-29T16:15:22.316Z,97172.73
2019-04-29T16:17:51.724Z,97176.34
2019-04-29T16:20:21.112Z,97178.98
2019-04-29T16:22:54.377Z,97179.78
2019-04-29T16:25:21.833Z,97180.41
2019-04-29T16:27:53.308Z,97178.95
2019-04-29T16:30:25.920Z,97173.69
2019-04-29T16:32:54.421Z,97177.33
2019-04-29T16:35:26.012Z,97175.44
2019-04-29T16:37:54.187Z,97176.48
2019-04-29T16:40:25.235Z,97177.55
2019-04-29T16:42:59.212Z,97179.46
2019-04-29T16:45:44.151Z,97180.03
2019-04-29T16:48:14.302Z,97178.44
2019-04-29T16:50:43.757Z,97184.55
2019-04-29T16:53:13.207Z,97174.70
2019-04-29T16:55:44.295Z,97179.42
2019-04-29T16:58:17.919Z,97181.00
2019-04-29T17:00:46.743Z,97183.55
2019-04-29T17:03:17.286Z,97188.66
2019-04-29T17:05:46.687Z,97188.66
2019-04-29T17:08:17.520Z,97189.25
2019-04-29T17:10:49.058Z,97193.55
2019-04-29T17:13:27.109Z,97187.69
2019-04-29T17:15:56.762Z,97193.64
2019-04-29T17:18:26.229Z,97188.27
2019-04-29T17:21:04.588Z,97196.13
2019-04-29T17:23:26.732Z,97203.40
2019-04-29T17:25:56.271Z,97198.50
2019-04-29T17:28:29.716Z,97195.16
2019-04-29T17:31:01.340Z,97193.67
2019-04-29T17:33:35.949Z,97197.42
2019-04-29T17:36:07.225Z,97193.23
2019-04-29T17:38:36.610Z,97193.23
2019-04-29T17:41:06.083Z,97195.89
2019-04-29T17:43:42.895Z,97195.89
2019-04-29T17:46:28.864Z,97205.75
2019-04-29T17:49:14.705Z,97204.90
2019-04-29T17:51:45.966Z,97209.29
2019-04-29T17:54:18.261Z,97206.55
2019-04-29T17:56:49.413Z,97199.99
2019-04-29T17:59:27.204Z,97203.57
2019-04-29T18:02:07.609Z,97211.72
2019-04-29T18:04:41.795Z,97208.03
2019-04-29T18:07:12.861Z,97209.39
2019-04-29T18:09:47.590Z,97207.02
2019-04-29T18:12:18.635Z,97206.47
2019-04-29T18:14:49.054Z,97204.39
2019-04-29T18:17:27.134Z,97203.53
2019-04-29T18:19:53.170Z,97200.78
2019-04-29T18:22:42.457Z,97206.01
2019-04-29T18:25:30.779Z,97209.06
2019-04-29T18:27:59.903Z,97208.36
2019-04-29T18:30:35.415Z,97216.06
2019-04-29T18:32:57.850Z,97221.55
2019-04-29T18:35:27.262Z,97214.45
2019-04-29T18:37:56.639Z,97222.75
2019-04-29T18:40:26.111Z,97219.48
2019-04-29T18:42:55.541Z,97221.19
2019-04-29T18:45:25.417Z,97219.48
2019-04-29T18:47:56.047Z,97224.89
2019-04-29T18:50:25.505Z,97227.27
2019-04-29T18:52:56.051Z,97229.92
2019-04-29T18:55:25.822Z,97235.02
2019-04-29T18:57:58.417Z,97236.69
2019-04-29T19:00:27.969Z,97238.03
2019-04-29T19:03:00.849Z,97238.38
2019-04-29T19:05:32.396Z,97237.70
2019-04-29T19:08:12.180Z,97237.04
2019-04-29T19:10:36.813Z,97240.07
2019-04-29T19:13:12.391Z,97232.32
2019-04-29T19:15:39.893Z,97239.06
2019-04-29T19:18:07.929Z,97240.08
2019-04-29T19:20:37.454Z,97233.96
2019-04-29T19:23:10.051Z,97231.78
2019-04-29T19:25:41.633Z,97235.36
2019-04-29T19:28:14.319Z,97244.45
2019-04-29T19:30:41.236Z,97240.05
2019-04-29T19:33:10.689Z,97232.32
2019-04-29T19:35:40.234Z,97241.06
2019-04-29T19:38:12.472Z,97240.22
2019-04-29T19:40:42.611Z,97242.42
2019-04-29T19:43:17.186Z,97236.77
2019-04-29T19:45:44.660Z,97235.83
2019-04-29T19:48:16.068Z,97229.77
2019-04-29T19:50:49.519Z,97238.02
2019-04-29T19:53:16.706Z,97229.63
2019-04-29T19:55:46.411Z,97232.00
2019-04-29T19:58:16.231Z,97232.16
2019-04-29T20:00:47.329Z,97225.77
2019-04-29T20:03:23.948Z,97233.33
2019-04-29T20:06:07.579Z,97240.91
2019-04-29T20:08:46.232Z,97231.48
2019-04-29T20:11:11.164Z,97235.29
2019-04-29T20:13:31.300Z,97224.73
2019-04-29T20:16:10.957Z,97235.19
2019-04-29T20:18:40.311Z,97233.00
2019-04-29T20:21:25.329Z,97236.56
2019-04-29T20:23:53.233Z,97231.33
2019-04-29T20:26:28.533Z,97238.38
2019-04-29T20:28:55.506Z,97237.38
2019-04-29T20:31:25.905Z,97233.48
2019-04-29T20:33:56.070Z,97232.98
2019-04-29T20:36:38.477Z,97236.02
2019-04-29T20:38:57.980Z,97227.25
2019-04-29T20:41:40.112Z,97233.80
2019-04-29T20:44:00.762Z,97235.61
2019-04-29T20:46:43.231Z,97232.59
2019-04-29T20:49:01.482Z,97231.45
2019-04-29T20:51:47.872Z,97229.30
2019-04-29T20:54:15.998Z,97230.95
2019-04-29T20:56:42.058Z,97227.43
2019-04-29T20:59:13.024Z,97232.28
2019-04-29T21:01:44.758Z,97233.33
2019-04-29T21:04:29.752Z,97230.97
2019-04-29T21:06:59.456Z,97230.11
2019-04-29T21:09:16.765Z,97225.06
2019-04-29T21:12:06.064Z,97227.27
2019-04-29T21:14:38.319Z,97222.88
2019-04-29T21:17:11.071Z,97223.20
2019-04-29T21:19:39.764Z,97227.23
2019-04-29T21:22:12.941Z,97221.15
2019-04-29T21:24:40.449Z,97223.22
2019-04-29T21:27:09.830Z,97215.45
2019-04-29T21:29:39.427Z,97219.84
2019-04-29T21:32:08.817Z,97220.34
2019-04-29T21:34:39.844Z,97213.92
2019-04-29T21:40:18.571Z,97221.84
2019-04-29T21:42:47.428Z,97219.16
2019-04-29T21:45:17.494Z,97216.81
2019-04-29T21:47:52.935Z,97204.52
2019-04-29T21:50:18.218Z,97210.74
2019-04-29T21:52:47.609Z,97211.91
2019-04-29T21:55:20.667Z,97211.58
2019-04-29T22:00:50.479Z,97211.08
2019-04-29T22:03:26.597Z,97209.41
2019-04-29T22:05:53.588Z,97211.74
2019-04-29T22:08:27.072Z,97214.45
2019-04-29T22:11:12.864Z,97213.78
2019-04-29T22:13:42.247Z,97212.77
2019-04-29T22:16:15.821Z,97210.05
2019-04-29T22:18:44.672Z,97209.38
2019-04-29T22:21:21.770Z,97215.80
2019-04-29T22:23:50.926Z,97212.77
2019-04-29T22:26:23.061Z,97216.46
2019-04-29T22:28:48.986Z,97211.09
2019-04-29T22:31:19.411Z,97207.02
2019-04-29T22:33:49.045Z,97210.57
2019-04-29T22:36:19.571Z,97218.31
2019-04-29T22:38:51.945Z,97207.36
2019-04-29T22:41:21.694Z,97204.96
2019-04-29T22:43:52.716Z,97200.77
2019-04-29T22:46:22.270Z,97198.62
2019-04-29T22:48:51.650Z,97198.94
2019-04-29T22:51:21.040Z,97209.20
2019-04-29T22:53:50.466Z,97202.31
2019-04-29T22:56:19.849Z,97198.60
2019-04-29T22:58:49.242Z,97197.94
2019-04-29T23:01:18.635Z,97202.32
2019-04-29T23:03:48.036Z,97196.42
2019-04-29T23:06:17.424Z,97190.52
2019-04-29T23:08:46.825Z,97191.53
2019-04-29T23:11:16.216Z,97186.48
2019-04-29T23:13:47.609Z,97181.73
2019-04-29T23:16:16.955Z,97178.73
2019-04-29T23:18:46.406Z,97181.41
2019-04-29T23:21:37.344Z,97176.48
2019-04-29T23:24:21.700Z,97172.34
2019-04-29T23:26:51.097Z,97165.39
2019-04-29T23:29:20.478Z,97163.90
2019-04-29T23:31:49.870Z,97163.55
2019-04-29T23:34:19.275Z,97164.52
2019-04-29T23:36:50.055Z,97164.91
2019-04-29T23:39:19.507Z,97163.21
2019-04-29T23:41:48.879Z,97158.85
2019-04-29T23:44:18.276Z,97156.80
2019-04-29T23:46:47.686Z,97155.80
2019-04-29T23:49:17.066Z,97149.38
2019-04-29T23:51:46.600Z,97134.55
2019-04-29T23:54:16.092Z,97134.55
2019-04-29T23:56:53.101Z,97145.83
